sensor_id;sensor_type;location;lat;lon;timestamp;temperature;humidity
56428;DHT22;42331;53.578;9.760;2023-04-24T00:02:14;11.40;99.90
56428;DHT22;42331;53.578;9.760;2023-04-24T00:04:44;11.40;99.90
56428;DHT22;42331;53.578;9.760;2023-04-24T00:07:15;11.30;99.90
56428;DHT22;42331;53.578;9.760;2023-04-24T00:09:50;11.30;99.90
56428;DHT22;42331;53.578;9.760;2023-04-24T00:12:21;11.20;99.90
56428;DHT22;42331;53.578;9.760;2023-04-24T00:14:52;11.20;99.90
56428;DHT22;42331;53.578;9.760;2023-04-24T00:17:23;11.30;99.90
56428;DHT22;42331;53.578;9.760;2023-04-24T00:19:53;11.30;99.90
56428;DHT22;42331;53.578;9.760;2023-04-24T00:22:28;11.30;99.90
56428;DHT22;42331;53.578;9.760;2023-04-24T00:24:59;11.30;99.90
56428;DHT22;42331;53.578;9.760;2023-04-24T00:27:30;11.30;99.90
56428;DHT22;42331;53.578;9.760;2023-04-24T00:30:01;11.20;99.90
56428;DHT22;42331;53.578;9.760;2023-04-24T00:32:31;11.20;99.90
56428;DHT22;42331;53.578;9.760;2023-04-24T00:35:04;11.20;99.90
56428;DHT22;42331;53.578;9.760;2023-04-24T00:37:36;11.20;99.90
56428;DHT22;42331;53.578;9.760;2023-04-24T00:40:07;11.20;99.90
56428;DHT22;42331;53.578;9.760;2023-04-24T00:42:39;11.20;99.90
56428;DHT22;42331;53.578;9.760;2023-04-24T00:45:10;11.20;99.90
56428;DHT22;42331;53.578;9.760;2023-04-24T00:47:42;11.20;99.90
56428;DHT22;42331;53.578;9.760;2023-04-24T00:50:15;11.20;99.90
56428;DHT22;42331;53.578;9.760;2023-04-24T00:52:46;11.20;99.90
56428;DHT22;42331;53.578;9.760;2023-04-24T00:55:17;11.10;99.90
56428;DHT22;42331;53.578;9.760;2023-04-24T00:57:48;11.10;99.90
56428;DHT22;42331;53.578;9.760;2023-04-24T01:00:19;11.10;99.90
56428;DHT22;42331;53.578;9.760;2023-04-24T01:02:50;11.10;99.90
56428;DHT22;42331;53.578;9.760;2023-04-24T01:05:22;11.00;99.90
56428;DHT22;42331;53.578;9.760;2023-04-24T01:07:53;11.00;99.90
56428;DHT22;42331;53.578;9.760;2023-04-24T01:10:24;11.00;99.90
56428;DHT22;42331;53.578;9.760;2023-04-24T01:12:56;11.00;99.90
56428;DHT22;42331;53.578;9.760;2023-04-24T01:15:27;11.00;99.90
56428;DHT22;42331;53.578;9.760;2023-04-24T01:17:58;10.90;99.90
56428;DHT22;42331;53.578;9.760;2023-04-24T01:20:29;10.90;99.90
56428;DHT22;42331;53.578;9.760;2023-04-24T01:23:00;10.90;99.90
56428;DHT22;42331;53.578;9.760;2023-04-24T01:25:31;10.90;99.90
56428;DHT22;42331;53.578;9.760;2023-04-24T01:28:03;10.90;99.90
56428;DHT22;42331;53.578;9.760;2023-04-24T01:30:34;10.90;99.90
56428;DHT22;42331;53.578;9.760;2023-04-24T01:33:05;10.90;99.90
56428;DHT22;42331;53.578;9.760;2023-04-24T01:35:37;11.00;99.90
56428;DHT22;42331;53.578;9.760;2023-04-24T01:38:07;11.00;99.90
56428;DHT22;42331;53.578;9.760;2023-04-24T01:40:38;11.00;99.90
56428;DHT22;42331;53.578;9.760;2023-04-24T01:43:09;11.10;99.90
56428;DHT22;42331;53.578;9.760;2023-04-24T01:45:40;11.10;99.90
56428;DHT22;42331;53.578;9.760;2023-04-24T01:48:12;11.10;99.90
56428;DHT22;42331;53.578;9.760;2023-04-24T01:50:43;11.00;99.90
56428;DHT22;42331;53.578;9.760;2023-04-24T01:53:14;11.10;99.90
56428;DHT22;42331;53.578;9.760;2023-04-24T01:55:44;11.10;99.90
56428;DHT22;42331;53.578;9.760;2023-04-24T01:58:15;11.10;99.90
56428;DHT22;42331;53.578;9.760;2023-04-24T02:00:46;11.10;99.90
56428;DHT22;42331;53.578;9.760;2023-04-24T02:03:17;11.10;99.90
56428;DHT22;42331;53.578;9.760;2023-04-24T02:05:47;11.00;99.90
56428;DHT22;42331;53.578;9.760;2023-04-24T02:08:18;11.00;99.90
56428;DHT22;42331;53.578;9.760;2023-04-24T02:10:49;10.90;99.90
56428;DHT22;42331;53.578;9.760;2023-04-24T02:13:19;10.90;99.90
56428;DHT22;42331;53.578;9.760;2023-04-24T02:15:50;10.80;99.90
56428;DHT22;42331;53.578;9.760;2023-04-24T02:18:21;10.80;99.90
56428;DHT22;42331;53.578;9.760;2023-04-24T02:20:53;10.80;99.90
56428;DHT22;42331;53.578;9.760;2023-04-24T02:23:24;10.70;99.90
56428;DHT22;42331;53.578;9.760;2023-04-24T02:25:55;10.70;99.90
56428;DHT22;42331;53.578;9.760;2023-04-24T02:28:26;10.60;99.90
56428;DHT22;42331;53.578;9.760;2023-04-24T02:30:57;10.60;99.90
56428;DHT22;42331;53.578;9.760;2023-04-24T02:33:28;10.60;99.90
56428;DHT22;42331;53.578;9.760;2023-04-24T02:35:59;10.50;99.90
56428;DHT22;42331;53.578;9.760;2023-04-24T02:38:30;10.50;99.90
56428;DHT22;42331;53.578;9.760;2023-04-24T02:41:01;10.50;99.90
56428;DHT22;42331;53.578;9.760;2023-04-24T02:43:33;10.40;99.90
56428;DHT22;42331;53.578;9.760;2023-04-24T02:46:04;10.40;99.90
56428;DHT22;42331;53.578;9.760;2023-04-24T02:48:35;10.40;99.90
56428;DHT22;42331;53.578;9.760;2023-04-24T02:51:05;10.30;99.90
56428;DHT22;42331;53.578;9.760;2023-04-24T02:53:37;10.30;99.90
56428;DHT22;42331;53.578;9.760;2023-04-24T02:56:07;10.30;99.90
56428;DHT22;42331;53.578;9.760;2023-04-24T02:58:38;10.30;99.90
56428;DHT22;42331;53.578;9.760;2023-04-24T03:01:09;10.20;99.90
56428;DHT22;42331;53.578;9.760;2023-04-24T03:03:40;10.20;99.90
56428;DHT22;42331;53.578;9.760;2023-04-24T03:06:11;10.20;99.90
56428;DHT22;42331;53.578;9.760;2023-04-24T03:08:41;10.20;99.90
56428;DHT22;42331;53.578;9.760;2023-04-24T03:11:12;10.20;99.90
56428;DHT22;42331;53.578;9.760;2023-04-24T03:13:43;10.20;99.90
56428;DHT22;42331;53.578;9.760;2023-04-24T03:16:13;10.20;99.90
56428;DHT22;42331;53.578;9.760;2023-04-24T03:18:44;10.20;99.90
56428;DHT22;42331;53.578;9.760;2023-04-24T03:21:15;10.20;99.90
56428;DHT22;42331;53.578;9.760;2023-04-24T03:23:46;10.20;99.90
56428;DHT22;42331;53.578;9.760;2023-04-24T03:26:17;10.20;99.90
56428;DHT22;42331;53.578;9.760;2023-04-24T03:28:47;10.20;99.90
56428;DHT22;42331;53.578;9.760;2023-04-24T03:31:18;10.10;99.90
56428;DHT22;42331;53.578;9.760;2023-04-24T03:33:51;10.10;99.90
56428;DHT22;42331;53.578;9.760;2023-04-24T03:36:22;10.10;99.90
56428;DHT22;42331;53.578;9.760;2023-04-24T03:38:52;10.10;99.90
56428;DHT22;42331;53.578;9.760;2023-04-24T03:41:23;10.10;99.90
56428;DHT22;42331;53.578;9.760;2023-04-24T03:43:54;10.00;99.90
56428;DHT22;42331;53.578;9.760;2023-04-24T03:46:25;10.00;99.90
56428;DHT22;42331;53.578;9.760;2023-04-24T03:48:56;10.00;99.90
56428;DHT22;42331;53.578;9.760;2023-04-24T03:51:27;10.00;99.90
56428;DHT22;42331;53.578;9.760;2023-04-24T03:54:01;10.00;99.90
56428;DHT22;42331;53.578;9.760;2023-04-24T03:56:33;10.00;99.90
56428;DHT22;42331;53.578;9.760;2023-04-24T03:59:03;10.00;99.90
56428;DHT22;42331;53.578;9.760;2023-04-24T04:01:34;10.00;99.90
56428;DHT22;42331;53.578;9.760;2023-04-24T04:04:07;10.00;99.90
56428;DHT22;42331;53.578;9.760;2023-04-24T04:06:38;10.00;99.90
56428;DHT22;42331;53.578;9.760;2023-04-24T04:09:09;10.00;99.90
56428;DHT22;42331;53.578;9.760;2023-04-24T04:11:40;9.90;99.90
56428;DHT22;42331;53.578;9.760;2023-04-24T04:14:11;9.90;99.90
56428;DHT22;42331;53.578;9.760;2023-04-24T04:16:42;9.90;99.90
56428;DHT22;42331;53.578;9.760;2023-04-24T04:19:13;9.90;99.90
56428;DHT22;42331;53.578;9.760;2023-04-24T04:21:44;9.90;99.90
56428;DHT22;42331;53.578;9.760;2023-04-24T04:24:16;9.90;99.90
56428;DHT22;42331;53.578;9.760;2023-04-24T04:26:47;9.90;99.90
56428;DHT22;42331;53.578;9.760;2023-04-24T04:29:18;9.90;99.90
56428;DHT22;42331;53.578;9.760;2023-04-24T04:31:48;10.00;99.90
56428;DHT22;42331;53.578;9.760;2023-04-24T04:34:19;10.00;99.90
56428;DHT22;42331;53.578;9.760;2023-04-24T04:36:50;10.10;99.90
56428;DHT22;42331;53.578;9.760;2023-04-24T04:39:20;10.20;99.90
56428;DHT22;42331;53.578;9.760;2023-04-24T04:41:51;10.10;99.90
56428;DHT22;42331;53.578;9.760;2023-04-24T04:44:23;10.20;99.90
56428;DHT22;42331;53.578;9.760;2023-04-24T04:46:54;10.30;99.90
56428;DHT22;42331;53.578;9.760;2023-04-24T04:49:26;10.30;99.90
56428;DHT22;42331;53.578;9.760;2023-04-24T04:51:58;10.30;99.90
56428;DHT22;42331;53.578;9.760;2023-04-24T04:54:29;10.30;99.90
56428;DHT22;42331;53.578;9.760;2023-04-24T04:57:00;10.30;99.90
56428;DHT22;42331;53.578;9.760;2023-04-24T04:59:31;10.30;99.90
56428;DHT22;42331;53.578;9.760;2023-04-24T05:02:01;10.30;99.90
56428;DHT22;42331;53.578;9.760;2023-04-24T05:04:32;10.30;99.90
56428;DHT22;42331;53.578;9.760;2023-04-24T05:07:03;10.30;99.90
56428;DHT22;42331;53.578;9.760;2023-04-24T05:09:33;10.40;99.90
56428;DHT22;42331;53.578;9.760;2023-04-24T05:12:04;10.40;99.90
56428;DHT22;42331;53.578;9.760;2023-04-24T05:14:41;10.50;99.90
56428;DHT22;42331;53.578;9.760;2023-04-24T05:17:15;10.60;99.90
56428;DHT22;42331;53.578;9.760;2023-04-24T05:19:51;10.70;99.90
56428;DHT22;42331;53.578;9.760;2023-04-24T05:22:22;10.90;99.90
56428;DHT22;42331;53.578;9.760;2023-04-24T05:24:54;11.00;99.90
56428;DHT22;42331;53.578;9.760;2023-04-24T05:27:25;11.00;99.90
56428;DHT22;42331;53.578;9.760;2023-04-24T05:29:55;11.10;99.90
56428;DHT22;42331;53.578;9.760;2023-04-24T05:32:26;11.10;99.90
56428;DHT22;42331;53.578;9.760;2023-04-24T05:34:57;11.10;99.90
56428;DHT22;42331;53.578;9.760;2023-04-24T05:37:28;11.10;99.90
56428;DHT22;42331;53.578;9.760;2023-04-24T05:39:58;11.20;99.90
56428;DHT22;42331;53.578;9.760;2023-04-24T05:42:29;11.30;99.90
56428;DHT22;42331;53.578;9.760;2023-04-24T05:45:00;11.40;99.90
56428;DHT22;42331;53.578;9.760;2023-04-24T05:47:33;11.50;99.90
56428;DHT22;42331;53.578;9.760;2023-04-24T05:50:04;11.60;99.90
56428;DHT22;42331;53.578;9.760;2023-04-24T05:52:36;11.60;99.90
56428;DHT22;42331;53.578;9.760;2023-04-24T05:55:07;11.60;99.90
56428;DHT22;42331;53.578;9.760;2023-04-24T05:57:38;11.70;99.90
56428;DHT22;42331;53.578;9.760;2023-04-24T06:00:09;11.70;99.90
56428;DHT22;42331;53.578;9.760;2023-04-24T06:02:42;11.60;99.90
56428;DHT22;42331;53.578;9.760;2023-04-24T06:05:22;11.60;99.90
56428;DHT22;42331;53.578;9.760;2023-04-24T06:07:53;11.70;99.90
56428;DHT22;42331;53.578;9.760;2023-04-24T06:10:24;11.80;99.90
56428;DHT22;42331;53.578;9.760;2023-04-24T06:12:55;11.80;99.90
56428;DHT22;42331;53.578;9.760;2023-04-24T06:15:30;11.90;99.90
56428;DHT22;42331;53.578;9.760;2023-04-24T06:18:01;12.00;99.90
56428;DHT22;42331;53.578;9.760;2023-04-24T06:20:32;12.10;99.90
56428;DHT22;42331;53.578;9.760;2023-04-24T06:23:03;12.20;99.90
56428;DHT22;42331;53.578;9.760;2023-04-24T06:25:33;12.30;99.90
56428;DHT22;42331;53.578;9.760;2023-04-24T06:28:04;12.40;99.90
56428;DHT22;42331;53.578;9.760;2023-04-24T06:30:35;12.50;99.90
56428;DHT22;42331;53.578;9.760;2023-04-24T06:33:06;12.50;99.90
56428;DHT22;42331;53.578;9.760;2023-04-24T06:35:36;12.50;99.90
56428;DHT22;42331;53.578;9.760;2023-04-24T06:38:08;12.50;99.90
56428;DHT22;42331;53.578;9.760;2023-04-24T06:40:39;12.60;99.90
56428;DHT22;42331;53.578;9.760;2023-04-24T06:43:09;12.70;99.90
56428;DHT22;42331;53.578;9.760;2023-04-24T06:45:41;12.70;99.90
56428;DHT22;42331;53.578;9.760;2023-04-24T06:48:13;12.70;99.90
56428;DHT22;42331;53.578;9.760;2023-04-24T06:50:44;12.70;99.90
56428;DHT22;42331;53.578;9.760;2023-04-24T06:53:15;12.70;99.90
56428;DHT22;42331;53.578;9.760;2023-04-24T06:55:46;12.70;99.90
56428;DHT22;42331;53.578;9.760;2023-04-24T06:58:17;12.90;99.90
56428;DHT22;42331;53.578;9.760;2023-04-24T07:00:48;12.90;99.90
56428;DHT22;42331;53.578;9.760;2023-04-24T07:03:18;13.00;99.90
56428;DHT22;42331;53.578;9.760;2023-04-24T07:05:49;13.00;99.90
56428;DHT22;42331;53.578;9.760;2023-04-24T07:08:20;12.90;99.90
56428;DHT22;42331;53.578;9.760;2023-04-24T07:10:52;12.80;99.90
56428;DHT22;42331;53.578;9.760;2023-04-24T07:13:23;12.70;99.90
56428;DHT22;42331;53.578;9.760;2023-04-24T07:16:12;12.60;99.90
56428;DHT22;42331;53.578;9.760;2023-04-24T07:18:43;12.60;99.90
56428;DHT22;42331;53.578;9.760;2023-04-24T07:21:14;12.60;99.90
56428;DHT22;42331;53.578;9.760;2023-04-24T07:23:44;12.70;99.90
56428;DHT22;42331;53.578;9.760;2023-04-24T07:26:15;12.80;99.90
56428;DHT22;42331;53.578;9.760;2023-04-24T07:28:46;12.80;99.90
56428;DHT22;42331;53.578;9.760;2023-04-24T07:31:17;12.80;99.90
56428;DHT22;42331;53.578;9.760;2023-04-24T07:33:48;13.00;99.90
56428;DHT22;42331;53.578;9.760;2023-04-24T07:36:19;13.20;99.90
56428;DHT22;42331;53.578;9.760;2023-04-24T07:38:50;13.10;99.90
56428;DHT22;42331;53.578;9.760;2023-04-24T07:41:20;13.10;99.90
56428;DHT22;42331;53.578;9.760;2023-04-24T07:43:54;13.00;99.90
56428;DHT22;42331;53.578;9.760;2023-04-24T07:46:25;13.10;99.90
56428;DHT22;42331;53.578;9.760;2023-04-24T07:48:58;13.00;99.90
56428;DHT22;42331;53.578;9.760;2023-04-24T07:51:29;13.00;99.90
56428;DHT22;42331;53.578;9.760;2023-04-24T07:54:01;12.90;99.90
56428;DHT22;42331;53.578;9.760;2023-04-24T07:56:32;12.90;99.90
56428;DHT22;42331;53.578;9.760;2023-04-24T07:59:03;12.90;99.90
56428;DHT22;42331;53.578;9.760;2023-04-24T08:01:34;12.80;99.90
56428;DHT22;42331;53.578;9.760;2023-04-24T08:04:04;12.80;99.90
56428;DHT22;42331;53.578;9.760;2023-04-24T08:06:36;12.80;99.90
56428;DHT22;42331;53.578;9.760;2023-04-24T08:09:07;12.70;99.90
56428;DHT22;42331;53.578;9.760;2023-04-24T08:11:37;12.70;99.90
56428;DHT22;42331;53.578;9.760;2023-04-24T08:14:08;12.90;99.90
56428;DHT22;42331;53.578;9.760;2023-04-24T08:16:39;13.00;99.90
56428;DHT22;42331;53.578;9.760;2023-04-24T08:19:10;13.10;99.90
56428;DHT22;42331;53.578;9.760;2023-04-24T08:21:41;13.10;99.90
56428;DHT22;42331;53.578;9.760;2023-04-24T08:24:11;13.10;99.90
56428;DHT22;42331;53.578;9.760;2023-04-24T08:26:42;13.20;99.90
56428;DHT22;42331;53.578;9.760;2023-04-24T08:29:13;13.10;99.90
56428;DHT22;42331;53.578;9.760;2023-04-24T08:31:43;13.00;99.90
56428;DHT22;42331;53.578;9.760;2023-04-24T08:34:14;12.90;99.90
56428;DHT22;42331;53.578;9.760;2023-04-24T08:36:45;13.00;99.90
56428;DHT22;42331;53.578;9.760;2023-04-24T08:39:17;13.00;99.90
56428;DHT22;42331;53.578;9.760;2023-04-24T08:41:48;12.90;99.90
56428;DHT22;42331;53.578;9.760;2023-04-24T08:47:38;12.80;99.90
56428;DHT22;42331;53.578;9.760;2023-04-24T08:50:11;12.80;99.90
56428;DHT22;42331;53.578;9.760;2023-04-24T08:52:42;12.80;99.90
56428;DHT22;42331;53.578;9.760;2023-04-24T08:55:13;12.80;99.90
56428;DHT22;42331;53.578;9.760;2023-04-24T08:57:48;12.90;99.90
56428;DHT22;42331;53.578;9.760;2023-04-24T09:00:21;13.00;99.90
56428;DHT22;42331;53.578;9.760;2023-04-24T09:02:55;13.00;99.90
56428;DHT22;42331;53.578;9.760;2023-04-24T09:05:27;13.00;99.90
56428;DHT22;42331;53.578;9.760;2023-04-24T09:07:59;13.00;99.90
56428;DHT22;42331;53.578;9.760;2023-04-24T09:10:35;13.00;99.90
56428;DHT22;42331;53.578;9.760;2023-04-24T09:13:06;12.90;99.90
56428;DHT22;42331;53.578;9.760;2023-04-24T09:15:40;12.90;99.90
56428;DHT22;42331;53.578;9.760;2023-04-24T09:18:12;13.00;99.90
56428;DHT22;42331;53.578;9.760;2023-04-24T09:21:03;13.00;99.90
56428;DHT22;42331;53.578;9.760;2023-04-24T09:23:34;13.30;99.90
56428;DHT22;42331;53.578;9.760;2023-04-24T09:26:06;13.50;99.90
56428;DHT22;42331;53.578;9.760;2023-04-24T09:28:40;13.50;99.90
56428;DHT22;42331;53.578;9.760;2023-04-24T09:31:15;13.40;99.90
56428;DHT22;42331;53.578;9.760;2023-04-24T09:36:30;13.40;99.90
56428;DHT22;42331;53.578;9.760;2023-04-24T09:39:12;13.30;99.90
56428;DHT22;42331;53.578;9.760;2023-04-24T09:44:19;13.20;99.90
56428;DHT22;42331;53.578;9.760;2023-04-24T09:46:59;13.20;99.90
56428;DHT22;42331;53.578;9.760;2023-04-24T09:49:31;13.20;99.90
56428;DHT22;42331;53.578;9.760;2023-04-24T09:52:12;13.10;99.90
56428;DHT22;42331;53.578;9.760;2023-04-24T09:54:53;13.00;99.90
56428;DHT22;42331;53.578;9.760;2023-04-24T09:57:25;12.90;99.90
56428;DHT22;42331;53.578;9.760;2023-04-24T09:59:57;12.80;99.90
56428;DHT22;42331;53.578;9.760;2023-04-24T10:02:31;12.90;99.90
56428;DHT22;42331;53.578;9.760;2023-04-24T10:05:02;13.00;99.90
56428;DHT22;42331;53.578;9.760;2023-04-24T10:07:33;13.10;99.90
56428;DHT22;42331;53.578;9.760;2023-04-24T10:10:04;13.30;99.90
56428;DHT22;42331;53.578;9.760;2023-04-24T10:12:35;13.30;99.90
56428;DHT22;42331;53.578;9.760;2023-04-24T10:15:07;13.20;99.90
56428;DHT22;42331;53.578;9.760;2023-04-24T10:17:40;13.20;99.90
56428;DHT22;42331;53.578;9.760;2023-04-24T10:20:11;13.10;99.90
56428;DHT22;42331;53.578;9.760;2023-04-24T10:22:42;13.20;99.90
56428;DHT22;42331;53.578;9.760;2023-04-24T10:25:13;13.20;99.90
56428;DHT22;42331;53.578;9.760;2023-04-24T10:27:45;13.30;99.90
56428;DHT22;42331;53.578;9.760;2023-04-24T10:30:18;13.20;99.90
56428;DHT22;42331;53.578;9.760;2023-04-24T10:32:49;13.30;99.90
56428;DHT22;42331;53.578;9.760;2023-04-24T10:35:20;13.40;99.90
56428;DHT22;42331;53.578;9.760;2023-04-24T10:37:58;13.60;99.90
56428;DHT22;42331;53.578;9.760;2023-04-24T10:40:32;13.50;99.90
56428;DHT22;42331;53.578;9.760;2023-04-24T10:43:08;13.40;99.90
56428;DHT22;42331;53.578;9.760;2023-04-24T10:45:41;13.40;99.90
56428;DHT22;42331;53.578;9.760;2023-04-24T10:48:30;13.30;99.90
56428;DHT22;42331;53.578;9.760;2023-04-24T10:51:17;13.10;99.90
56428;DHT22;42331;53.578;9.760;2023-04-24T10:53:52;13.10;99.90
56428;DHT22;42331;53.578;9.760;2023-04-24T10:56:23;12.90;99.90
56428;DHT22;42331;53.578;9.760;2023-04-24T10:58:56;12.80;99.90
56428;DHT22;42331;53.578;9.760;2023-04-24T11:01:32;12.70;99.90
56428;DHT22;42331;53.578;9.760;2023-04-24T11:04:03;12.60;99.90
56428;DHT22;42331;53.578;9.760;2023-04-24T11:06:37;12.50;99.90
56428;DHT22;42331;53.578;9.760;2023-04-24T11:09:15;12.50;99.90
56428;DHT22;42331;53.578;9.760;2023-04-24T11:11:47;12.50;99.90
56428;DHT22;42331;53.578;9.760;2023-04-24T11:14:17;12.60;99.90
56428;DHT22;42331;53.578;9.760;2023-04-24T11:16:53;12.50;99.90
56428;DHT22;42331;53.578;9.760;2023-04-24T11:19:30;12.50;99.90
56428;DHT22;42331;53.578;9.760;2023-04-24T11:22:16;12.50;99.90
56428;DHT22;42331;53.578;9.760;2023-04-24T11:24:53;12.60;99.90
56428;DHT22;42331;53.578;9.760;2023-04-24T11:27:24;12.70;99.90
56428;DHT22;42331;53.578;9.760;2023-04-24T11:32:38;12.70;99.90
56428;DHT22;42331;53.578;9.760;2023-04-24T11:35:15;12.70;99.90
56428;DHT22;42331;53.578;9.760;2023-04-24T11:37:48;12.80;99.90
56428;DHT22;42331;53.578;9.760;2023-04-24T11:40:21;12.80;99.90
56428;DHT22;42331;53.578;9.760;2023-04-24T11:42:56;13.00;99.90
56428;DHT22;42331;53.578;9.760;2023-04-24T11:45:29;13.20;99.90
56428;DHT22;42331;53.578;9.760;2023-04-24T11:48:00;13.30;99.90
56428;DHT22;42331;53.578;9.760;2023-04-24T11:50:33;13.30;99.90
56428;DHT22;42331;53.578;9.760;2023-04-24T11:53:04;13.30;99.90
56428;DHT22;42331;53.578;9.760;2023-04-24T11:55:34;13.20;99.90
56428;DHT22;42331;53.578;9.760;2023-04-24T11:58:05;13.10;99.90
56428;DHT22;42331;53.578;9.760;2023-04-24T12:00:36;13.10;99.90
56428;DHT22;42331;53.578;9.760;2023-04-24T12:03:09;13.10;99.90
56428;DHT22;42331;53.578;9.760;2023-04-24T12:05:40;13.30;99.90
56428;DHT22;42331;53.578;9.760;2023-04-24T12:08:11;13.30;99.90
56428;DHT22;42331;53.578;9.760;2023-04-24T12:10:42;13.30;99.90
56428;DHT22;42331;53.578;9.760;2023-04-24T12:13:12;13.30;99.90
56428;DHT22;42331;53.578;9.760;2023-04-24T12:15:43;13.20;99.90
56428;DHT22;42331;53.578;9.760;2023-04-24T12:18:14;13.30;99.90
56428;DHT22;42331;53.578;9.760;2023-04-24T12:20:47;13.30;99.90
56428;DHT22;42331;53.578;9.760;2023-04-24T12:23:33;13.30;99.90
56428;DHT22;42331;53.578;9.760;2023-04-24T12:26:05;13.40;99.90
56428;DHT22;42331;53.578;9.760;2023-04-24T12:28:37;13.30;99.90
56428;DHT22;42331;53.578;9.760;2023-04-24T12:31:08;13.30;99.90
56428;DHT22;42331;53.578;9.760;2023-04-24T12:33:38;13.30;99.90
56428;DHT22;42331;53.578;9.760;2023-04-24T12:36:12;13.20;99.90
56428;DHT22;42331;53.578;9.760;2023-04-24T12:38:44;13.00;99.90
56428;DHT22;42331;53.578;9.760;2023-04-24T12:41:16;12.80;99.90
56428;DHT22;42331;53.578;9.760;2023-04-24T12:43:52;12.70;99.90
56428;DHT22;42331;53.578;9.760;2023-04-24T12:46:23;12.50;99.90
56428;DHT22;42331;53.578;9.760;2023-04-24T12:48:54;12.40;99.90
56428;DHT22;42331;53.578;9.760;2023-04-24T12:51:25;12.10;99.90
56428;DHT22;42331;53.578;9.760;2023-04-24T12:53:55;11.70;99.90
56428;DHT22;42331;53.578;9.760;2023-04-24T12:56:27;11.40;99.90
56428;DHT22;42331;53.578;9.760;2023-04-24T12:58:57;11.20;99.90
56428;DHT22;42331;53.578;9.760;2023-04-24T13:01:28;11.10;99.90
56428;DHT22;42331;53.578;9.760;2023-04-24T13:03:59;11.10;99.90
56428;DHT22;42331;53.578;9.760;2023-04-24T13:06:30;11.00;99.90
56428;DHT22;42331;53.578;9.760;2023-04-24T13:09:02;11.00;99.90
56428;DHT22;42331;53.578;9.760;2023-04-24T13:11:32;11.00;99.90
56428;DHT22;42331;53.578;9.760;2023-04-24T13:14:03;10.90;99.90
56428;DHT22;42331;53.578;9.760;2023-04-24T13:16:34;10.90;99.90
56428;DHT22;42331;53.578;9.760;2023-04-24T13:19:05;11.00;99.90
56428;DHT22;42331;53.578;9.760;2023-04-24T13:21:35;11.00;99.90
56428;DHT22;42331;53.578;9.760;2023-04-24T13:24:06;11.10;99.90
56428;DHT22;42331;53.578;9.760;2023-04-24T13:26:38;11.20;99.90
56428;DHT22;42331;53.578;9.760;2023-04-24T13:29:08;11.20;99.90
56428;DHT22;42331;53.578;9.760;2023-04-24T13:31:39;11.30;99.90
56428;DHT22;42331;53.578;9.760;2023-04-24T13:34:10;11.40;99.90
56428;DHT22;42331;53.578;9.760;2023-04-24T13:36:41;11.40;99.90
56428;DHT22;42331;53.578;9.760;2023-04-24T13:39:12;11.50;99.90
56428;DHT22;42331;53.578;9.760;2023-04-24T13:41:43;11.60;99.90
56428;DHT22;42331;53.578;9.760;2023-04-24T13:44:16;11.70;99.90
56428;DHT22;42331;53.578;9.760;2023-04-24T13:46:48;11.70;99.90
56428;DHT22;42331;53.578;9.760;2023-04-24T13:49:20;11.80;99.90
56428;DHT22;42331;53.578;9.760;2023-04-24T13:51:52;11.80;99.90
56428;DHT22;42331;53.578;9.760;2023-04-24T13:54:23;11.90;99.90
56428;DHT22;42331;53.578;9.760;2023-04-24T13:56:57;11.90;99.90
56428;DHT22;42331;53.578;9.760;2023-04-24T13:59:28;12.00;99.90
56428;DHT22;42331;53.578;9.760;2023-04-24T14:01:59;12.00;99.90
56428;DHT22;42331;53.578;9.760;2023-04-24T14:04:29;12.10;99.90
56428;DHT22;42331;53.578;9.760;2023-04-24T14:07:01;12.00;99.90
56428;DHT22;42331;53.578;9.760;2023-04-24T14:09:31;11.90;99.90
56428;DHT22;42331;53.578;9.760;2023-04-24T14:12:02;11.80;99.90
56428;DHT22;42331;53.578;9.760;2023-04-24T14:14:34;11.70;99.90
56428;DHT22;42331;53.578;9.760;2023-04-24T14:17:05;11.60;99.90
56428;DHT22;42331;53.578;9.760;2023-04-24T14:19:36;11.40;99.90
56428;DHT22;42331;53.578;9.760;2023-04-24T14:22:06;11.10;99.90
56428;DHT22;42331;53.578;9.760;2023-04-24T14:24:37;10.80;99.90
56428;DHT22;42331;53.578;9.760;2023-04-24T14:27:08;10.60;99.90
56428;DHT22;42331;53.578;9.760;2023-04-24T14:29:39;10.50;99.90
56428;DHT22;42331;53.578;9.760;2023-04-24T14:32:10;10.40;99.90
56428;DHT22;42331;53.578;9.760;2023-04-24T14:34:41;10.50;99.90
56428;DHT22;42331;53.578;9.760;2023-04-24T14:37:12;10.50;99.90
56428;DHT22;42331;53.578;9.760;2023-04-24T14:39:43;10.40;99.90
56428;DHT22;42331;53.578;9.760;2023-04-24T14:42:13;10.40;99.90
56428;DHT22;42331;53.578;9.760;2023-04-24T14:44:44;10.40;99.90
56428;DHT22;42331;53.578;9.760;2023-04-24T14:47:15;10.30;99.90
56428;DHT22;42331;53.578;9.760;2023-04-24T14:49:51;10.30;99.90
56428;DHT22;42331;53.578;9.760;2023-04-24T14:52:21;10.20;99.90
56428;DHT22;42331;53.578;9.760;2023-04-24T14:54:52;10.20;99.90
56428;DHT22;42331;53.578;9.760;2023-04-24T14:57:23;10.20;99.90
56428;DHT22;42331;53.578;9.760;2023-04-24T14:59:53;10.10;99.90
56428;DHT22;42331;53.578;9.760;2023-04-24T15:02:24;10.10;99.90
56428;DHT22;42331;53.578;9.760;2023-04-24T15:04:55;9.90;99.90
56428;DHT22;42331;53.578;9.760;2023-04-24T15:07:26;9.70;99.90
56428;DHT22;42331;53.578;9.760;2023-04-24T15:09:57;9.60;99.90
56428;DHT22;42331;53.578;9.760;2023-04-24T15:12:27;9.60;99.90
56428;DHT22;42331;53.578;9.760;2023-04-24T15:14:59;9.50;99.90
56428;DHT22;42331;53.578;9.760;2023-04-24T15:17:30;9.40;99.90
56428;DHT22;42331;53.578;9.760;2023-04-24T15:20:00;9.40;99.90
56428;DHT22;42331;53.578;9.760;2023-04-24T15:22:31;9.40;99.90
56428;DHT22;42331;53.578;9.760;2023-04-24T15:25:02;9.40;99.90
56428;DHT22;42331;53.578;9.760;2023-04-24T15:27:43;9.30;99.90
56428;DHT22;42331;53.578;9.760;2023-04-24T15:30:14;9.20;99.90
56428;DHT22;42331;53.578;9.760;2023-04-24T15:32:45;9.20;99.90
56428;DHT22;42331;53.578;9.760;2023-04-24T15:35:16;9.20;99.90
56428;DHT22;42331;53.578;9.760;2023-04-24T15:37:47;9.10;99.90
56428;DHT22;42331;53.578;9.760;2023-04-24T15:40:18;9.10;99.90
56428;DHT22;42331;53.578;9.760;2023-04-24T15:42:49;9.00;99.90
56428;DHT22;42331;53.578;9.760;2023-04-24T15:45:20;8.90;99.90
56428;DHT22;42331;53.578;9.760;2023-04-24T15:47:51;8.90;99.90
56428;DHT22;42331;53.578;9.760;2023-04-24T15:50:21;8.80;99.90
56428;DHT22;42331;53.578;9.760;2023-04-24T15:52:53;8.70;99.90
56428;DHT22;42331;53.578;9.760;2023-04-24T15:55:24;8.60;99.90
56428;DHT22;42331;53.578;9.760;2023-04-24T15:57:54;8.60;99.90
56428;DHT22;42331;53.578;9.760;2023-04-24T16:00:26;8.60;99.90
56428;DHT22;42331;53.578;9.760;2023-04-24T16:03:03;8.60;99.90
56428;DHT22;42331;53.578;9.760;2023-04-24T16:05:34;8.50;99.90
56428;DHT22;42331;53.578;9.760;2023-04-24T16:08:05;8.30;99.90
56428;DHT22;42331;53.578;9.760;2023-04-24T16:10:35;8.20;99.90
56428;DHT22;42331;53.578;9.760;2023-04-24T16:13:07;8.10;99.90